sensor_id;sensor_type;location;lat;lon;timestamp;temperature;humidity
15455;DHT22;21057;51.024;7.540;2023-06-10T00:01:46;19.70;99.90
15455;DHT22;21057;51.024;7.540;2023-06-10T00:04:15;19.70;99.90
15455;DHT22;21057;51.024;7.540;2023-06-10T00:06:42;19.70;99.90
15455;DHT22;21057;51.024;7.540;2023-06-10T00:09:09;19.60;99.90
15455;DHT22;21057;51.024;7.540;2023-06-10T00:11:36;19.60;99.90
15455;DHT22;21057;51.024;7.540;2023-06-10T00:14:03;19.60;99.90
15455;DHT22;21057;51.024;7.540;2023-06-10T00:16:30;19.60;99.90
15455;DHT22;21057;51.024;7.540;2023-06-10T00:18:58;19.60;99.90
15455;DHT22;21057;51.024;7.540;2023-06-10T00:21:28;19.60;99.90
15455;DHT22;21057;51.024;7.540;2023-06-10T00:23:55;19.60;99.90
15455;DHT22;21057;51.024;7.540;2023-06-10T00:26:22;19.60;99.90
15455;DHT22;21057;51.024;7.540;2023-06-10T00:28:49;19.60;99.90
15455;DHT22;21057;51.024;7.540;2023-06-10T00:31:17;19.50;99.90
15455;DHT22;21057;51.024;7.540;2023-06-10T00:33:45;19.50;99.90
15455;DHT22;21057;51.024;7.540;2023-06-10T00:36:12;19.50;99.90
15455;DHT22;21057;51.024;7.540;2023-06-10T00:38:40;19.40;99.90
15455;DHT22;21057;51.024;7.540;2023-06-10T00:41:07;19.40;99.90
15455;DHT22;21057;51.024;7.540;2023-06-10T00:43:34;19.40;99.90
15455;DHT22;21057;51.024;7.540;2023-06-10T00:46:01;19.40;99.90
15455;DHT22;21057;51.024;7.540;2023-06-10T00:48:28;19.50;99.90
15455;DHT22;21057;51.024;7.540;2023-06-10T00:50:55;19.50;99.90
15455;DHT22;21057;51.024;7.540;2023-06-10T00:53:23;19.50;99.90
15455;DHT22;21057;51.024;7.540;2023-06-10T00:55:52;19.40;99.90
15455;DHT22;21057;51.024;7.540;2023-06-10T00:58:19;19.40;99.90
15455;DHT22;21057;51.024;7.540;2023-06-10T01:00:46;19.40;99.90
15455;DHT22;21057;51.024;7.540;2023-06-10T01:03:13;19.40;99.90
15455;DHT22;21057;51.024;7.540;2023-06-10T01:05:42;19.30;99.90
15455;DHT22;21057;51.024;7.540;2023-06-10T01:08:17;19.20;99.90
15455;DHT22;21057;51.024;7.540;2023-06-10T01:10:50;19.20;99.90
15455;DHT22;21057;51.024;7.540;2023-06-10T01:13:20;19.20;99.90
15455;DHT22;21057;51.024;7.540;2023-06-10T01:15:50;19.30;99.90
15455;DHT22;21057;51.024;7.540;2023-06-10T01:18:17;19.30;99.90
15455;DHT22;21057;51.024;7.540;2023-06-10T01:20:44;19.20;99.90
15455;DHT22;21057;51.024;7.540;2023-06-10T01:23:13;19.20;99.90
15455;DHT22;21057;51.024;7.540;2023-06-10T01:25:41;19.20;99.90
15455;DHT22;21057;51.024;7.540;2023-06-10T01:28:13;19.20;99.90
15455;DHT22;21057;51.024;7.540;2023-06-10T01:30:45;19.20;99.90
15455;DHT22;21057;51.024;7.540;2023-06-10T01:33:15;19.20;99.90
15455;DHT22;21057;51.024;7.540;2023-06-10T01:35:44;19.10;99.90
15455;DHT22;21057;51.024;7.540;2023-06-10T01:38:14;19.10;99.90
15455;DHT22;21057;51.024;7.540;2023-06-10T01:40:42;19.00;99.90
15455;DHT22;21057;51.024;7.540;2023-06-10T01:43:09;19.00;99.90
15455;DHT22;21057;51.024;7.540;2023-06-10T01:45:36;18.90;99.90
15455;DHT22;21057;51.024;7.540;2023-06-10T01:48:03;18.90;99.90
15455;DHT22;21057;51.024;7.540;2023-06-10T01:50:30;18.90;99.90
15455;DHT22;21057;51.024;7.540;2023-06-10T01:52:59;19.00;99.90
15455;DHT22;21057;51.024;7.540;2023-06-10T01:55:28;18.90;99.90
15455;DHT22;21057;51.024;7.540;2023-06-10T01:57:54;18.90;99.90
15455;DHT22;21057;51.024;7.540;2023-06-10T02:00:21;18.90;99.90
15455;DHT22;21057;51.024;7.540;2023-06-10T02:02:48;18.80;99.90
15455;DHT22;21057;51.024;7.540;2023-06-10T02:05:15;18.80;99.90
15455;DHT22;21057;51.024;7.540;2023-06-10T02:07:42;18.80;99.90
15455;DHT22;21057;51.024;7.540;2023-06-10T02:10:09;18.80;99.90
15455;DHT22;21057;51.024;7.540;2023-06-10T02:12:37;18.70;99.90
15455;DHT22;21057;51.024;7.540;2023-06-10T02:15:04;18.70;99.90
15455;DHT22;21057;51.024;7.540;2023-06-10T02:17:31;18.60;99.90
15455;DHT22;21057;51.024;7.540;2023-06-10T02:19:59;18.60;99.90
15455;DHT22;21057;51.024;7.540;2023-06-10T02:22:29;18.50;99.90
15455;DHT22;21057;51.024;7.540;2023-06-10T02:24:56;18.50;99.90
15455;DHT22;21057;51.024;7.540;2023-06-10T02:27:23;18.40;99.90
15455;DHT22;21057;51.024;7.540;2023-06-10T02:29:52;18.40;99.90
15455;DHT22;21057;51.024;7.540;2023-06-10T02:32:18;18.40;99.90
15455;DHT22;21057;51.024;7.540;2023-06-10T02:34:45;18.40;99.90
15455;DHT22;21057;51.024;7.540;2023-06-10T02:37:13;18.40;99.90
15455;DHT22;21057;51.024;7.540;2023-06-10T02:39:40;18.30;99.90
15455;DHT22;21057;51.024;7.540;2023-06-10T02:42:07;18.30;99.90
15455;DHT22;21057;51.024;7.540;2023-06-10T02:44:34;18.30;99.90
15455;DHT22;21057;51.024;7.540;2023-06-10T02:47:02;18.30;99.90
15455;DHT22;21057;51.024;7.540;2023-06-10T02:49:29;18.20;99.90
15455;DHT22;21057;51.024;7.540;2023-06-10T02:51:56;18.20;99.90
15455;DHT22;21057;51.024;7.540;2023-06-10T02:54:23;18.20;99.90
15455;DHT22;21057;51.024;7.540;2023-06-10T02:56:51;18.30;99.90
15455;DHT22;21057;51.024;7.540;2023-06-10T02:59:21;18.30;99.90
15455;DHT22;21057;51.024;7.540;2023-06-10T03:01:48;18.30;99.90
15455;DHT22;21057;51.024;7.540;2023-06-10T03:04:16;18.30;99.90
15455;DHT22;21057;51.024;7.540;2023-06-10T03:06:43;18.30;99.90
15455;DHT22;21057;51.024;7.540;2023-06-10T03:09:12;18.20;99.90
15455;DHT22;21057;51.024;7.540;2023-06-10T03:11:39;18.30;99.90
15455;DHT22;21057;51.024;7.540;2023-06-10T03:14:06;18.30;99.90
15455;DHT22;21057;51.024;7.540;2023-06-10T03:16:32;18.30;99.90
15455;DHT22;21057;51.024;7.540;2023-06-10T03:18:59;18.20;99.90
15455;DHT22;21057;51.024;7.540;2023-06-10T03:21:27;18.20;99.90
15455;DHT22;21057;51.024;7.540;2023-06-10T03:23:54;18.20;99.90
15455;DHT22;21057;51.024;7.540;2023-06-10T03:26:21;18.20;99.90
15455;DHT22;21057;51.024;7.540;2023-06-10T03:28:48;18.20;99.90
15455;DHT22;21057;51.024;7.540;2023-06-10T03:31:15;18.20;99.90
15455;DHT22;21057;51.024;7.540;2023-06-10T03:33:43;18.20;99.90
15455;DHT22;21057;51.024;7.540;2023-06-10T03:36:10;18.10;99.90
15455;DHT22;21057;51.024;7.540;2023-06-10T03:38:38;18.10;99.90
15455;DHT22;21057;51.024;7.540;2023-06-10T03:41:05;18.10;99.90
15455;DHT22;21057;51.024;7.540;2023-06-10T03:43:32;18.10;99.90
15455;DHT22;21057;51.024;7.540;2023-06-10T03:45:59;18.10;99.90
15455;DHT22;21057;51.024;7.540;2023-06-10T03:48:26;18.20;99.90
15455;DHT22;21057;51.024;7.540;2023-06-10T03:50:53;18.20;99.90
15455;DHT22;21057;51.024;7.540;2023-06-10T03:53:20;18.20;99.90
15455;DHT22;21057;51.024;7.540;2023-06-10T03:55:48;18.20;99.90
15455;DHT22;21057;51.024;7.540;2023-06-10T03:58:15;18.20;99.90
15455;DHT22;21057;51.024;7.540;2023-06-10T04:00:43;18.20;99.90
15455;DHT22;21057;51.024;7.540;2023-06-10T04:03:11;18.30;99.90
15455;DHT22;21057;51.024;7.540;2023-06-10T04:05:40;18.50;99.90
15455;DHT22;21057;51.024;7.540;2023-06-10T04:08:08;18.50;99.90
15455;DHT22;21057;51.024;7.540;2023-06-10T04:10:35;18.60;99.90
15455;DHT22;21057;51.024;7.540;2023-06-10T04:13:03;18.80;99.90
15455;DHT22;21057;51.024;7.540;2023-06-10T04:15:30;18.70;99.90
15455;DHT22;21057;51.024;7.540;2023-06-10T04:17:59;18.90;99.90
15455;DHT22;21057;51.024;7.540;2023-06-10T04:20:26;19.00;99.90
15455;DHT22;21057;51.024;7.540;2023-06-10T04:22:53;19.00;99.90
15455;DHT22;21057;51.024;7.540;2023-06-10T04:25:20;19.00;99.90
15455;DHT22;21057;51.024;7.540;2023-06-10T04:27:47;19.00;99.90
15455;DHT22;21057;51.024;7.540;2023-06-10T04:30:16;19.00;99.90
15455;DHT22;21057;51.024;7.540;2023-06-10T04:32:43;19.00;99.90
15455;DHT22;21057;51.024;7.540;2023-06-10T04:35:11;19.00;99.90
15455;DHT22;21057;51.024;7.540;2023-06-10T04:37:39;19.20;99.90
15455;DHT22;21057;51.024;7.540;2023-06-10T04:40:07;19.10;99.90
15455;DHT22;21057;51.024;7.540;2023-06-10T04:42:34;19.10;99.90
15455;DHT22;21057;51.024;7.540;2023-06-10T04:45:01;19.20;99.90
15455;DHT22;21057;51.024;7.540;2023-06-10T04:47:30;19.30;99.90
15455;DHT22;21057;51.024;7.540;2023-06-10T04:49:58;19.30;99.90
15455;DHT22;21057;51.024;7.540;2023-06-10T04:52:25;19.40;99.90
15455;DHT22;21057;51.024;7.540;2023-06-10T04:54:52;19.50;99.90
15455;DHT22;21057;51.024;7.540;2023-06-10T04:57:19;19.60;99.90
15455;DHT22;21057;51.024;7.540;2023-06-10T04:59:46;19.60;99.90
15455;DHT22;21057;51.024;7.540;2023-06-10T05:02:13;19.80;99.90
15455;DHT22;21057;51.024;7.540;2023-06-10T05:04:41;19.90;99.90
15455;DHT22;21057;51.024;7.540;2023-06-10T05:07:08;19.90;99.90
15455;DHT22;21057;51.024;7.540;2023-06-10T05:09:35;20.00;99.90
15455;DHT22;21057;51.024;7.540;2023-06-10T05:12:03;20.00;99.90
15455;DHT22;21057;51.024;7.540;2023-06-10T05:14:30;20.10;99.90
15455;DHT22;21057;51.024;7.540;2023-06-10T05:16:57;20.10;99.80
15455;DHT22;21057;51.024;7.540;2023-06-10T05:19:24;20.20;99.70
15455;DHT22;21057;51.024;7.540;2023-06-10T05:21:52;20.20;99.90
15455;DHT22;21057;51.024;7.540;2023-06-10T05:24:18;20.40;99.90
15455;DHT22;21057;51.024;7.540;2023-06-10T05:26:46;20.40;99.70
15455;DHT22;21057;51.024;7.540;2023-06-10T05:29:14;20.50;99.80
15455;DHT22;21057;51.024;7.540;2023-06-10T05:31:42;20.60;99.20
15455;DHT22;21057;51.024;7.540;2023-06-10T05:34:09;20.70;99.10
15455;DHT22;21057;51.024;7.540;2023-06-10T05:36:38;20.80;99.00
15455;DHT22;21057;51.024;7.540;2023-06-10T05:39:07;20.90;99.60
15455;DHT22;21057;51.024;7.540;2023-06-10T05:41:33;21.00;99.10
15455;DHT22;21057;51.024;7.540;2023-06-10T05:44:00;21.20;98.60
15455;DHT22;21057;51.024;7.540;2023-06-10T05:46:27;21.30;99.00
15455;DHT22;21057;51.024;7.540;2023-06-10T05:48:54;21.30;98.70
15455;DHT22;21057;51.024;7.540;2023-06-10T05:51:21;21.30;98.60
15455;DHT22;21057;51.024;7.540;2023-06-10T05:53:48;21.40;98.60
15455;DHT22;21057;51.024;7.540;2023-06-10T05:56:16;21.60;98.70
15455;DHT22;21057;51.024;7.540;2023-06-10T05:58:43;21.70;98.10
15455;DHT22;21057;51.024;7.540;2023-06-10T06:01:10;21.70;98.30
15455;DHT22;21057;51.024;7.540;2023-06-10T06:03:47;21.90;98.80
15455;DHT22;21057;51.024;7.540;2023-06-10T06:06:14;22.00;98.50
15455;DHT22;21057;51.024;7.540;2023-06-10T06:08:41;22.00;98.20
15455;DHT22;21057;51.024;7.540;2023-06-10T06:11:08;22.10;97.30
15455;DHT22;21057;51.024;7.540;2023-06-10T06:13:36;22.20;97.70
15455;DHT22;21057;51.024;7.540;2023-06-10T06:16:03;22.40;97.20
15455;DHT22;21057;51.024;7.540;2023-06-10T06:18:31;22.60;97.80
15455;DHT22;21057;51.024;7.540;2023-06-10T06:20:58;22.60;97.20
15455;DHT22;21057;51.024;7.540;2023-06-10T06:23:25;22.60;96.60
15455;DHT22;21057;51.024;7.540;2023-06-10T06:25:51;22.80;96.50
15455;DHT22;21057;51.024;7.540;2023-06-10T06:28:18;22.80;96.70
15455;DHT22;21057;51.024;7.540;2023-06-10T06:30:47;23.00;96.90
15455;DHT22;21057;51.024;7.540;2023-06-10T06:33:14;23.10;96.60
15455;DHT22;21057;51.024;7.540;2023-06-10T06:35:42;23.10;95.80
15455;DHT22;21057;51.024;7.540;2023-06-10T06:38:09;23.10;96.10
15455;DHT22;21057;51.024;7.540;2023-06-10T06:40:36;23.20;95.80
15455;DHT22;21057;51.024;7.540;2023-06-10T06:43:02;23.20;96.70
15455;DHT22;21057;51.024;7.540;2023-06-10T06:45:29;23.30;95.80
15455;DHT22;21057;51.024;7.540;2023-06-10T06:47:58;23.40;95.70
15455;DHT22;21057;51.024;7.540;2023-06-10T06:50:25;23.50;95.20
15455;DHT22;21057;51.024;7.540;2023-06-10T06:52:52;23.60;94.90
15455;DHT22;21057;51.024;7.540;2023-06-10T06:55:19;23.60;94.70
15455;DHT22;21057;51.024;7.540;2023-06-10T06:57:46;23.70;95.10
15455;DHT22;21057;51.024;7.540;2023-06-10T07:00:17;23.70;94.20
15455;DHT22;21057;51.024;7.540;2023-06-10T07:02:44;23.80;95.20
15455;DHT22;21057;51.024;7.540;2023-06-10T07:05:16;23.90;95.50
15455;DHT22;21057;51.024;7.540;2023-06-10T07:07:43;24.10;95.20
15455;DHT22;21057;51.024;7.540;2023-06-10T07:10:10;24.30;94.70
15455;DHT22;21057;51.024;7.540;2023-06-10T07:12:37;24.40;94.50
15455;DHT22;21057;51.024;7.540;2023-06-10T07:15:05;24.50;94.50
15455;DHT22;21057;51.024;7.540;2023-06-10T07:17:33;24.60;93.80
15455;DHT22;21057;51.024;7.540;2023-06-10T07:20:00;24.60;93.90
15455;DHT22;21057;51.024;7.540;2023-06-10T07:22:30;24.70;94.20
15455;DHT22;21057;51.024;7.540;2023-06-10T07:24:57;24.80;94.40
15455;DHT22;21057;51.024;7.540;2023-06-10T07:27:25;24.80;92.80
15455;DHT22;21057;51.024;7.540;2023-06-10T07:29:52;25.00;93.80
15455;DHT22;21057;51.024;7.540;2023-06-10T07:32:19;25.10;93.20
15455;DHT22;21057;51.024;7.540;2023-06-10T07:34:49;25.30;91.80
15455;DHT22;21057;51.024;7.540;2023-06-10T07:37:16;25.40;92.30
15455;DHT22;21057;51.024;7.540;2023-06-10T07:39:46;25.40;92.50
15455;DHT22;21057;51.024;7.540;2023-06-10T07:42:14;25.60;91.80
15455;DHT22;21057;51.024;7.540;2023-06-10T07:44:41;25.70;92.80
15455;DHT22;21057;51.024;7.540;2023-06-10T07:47:09;25.80;92.70
15455;DHT22;21057;51.024;7.540;2023-06-10T07:49:36;26.00;91.00
15455;DHT22;21057;51.024;7.540;2023-06-10T07:52:04;26.10;91.80
15455;DHT22;21057;51.024;7.540;2023-06-10T07:54:31;26.00;90.00
15455;DHT22;21057;51.024;7.540;2023-06-10T07:56:59;26.00;91.30
15455;DHT22;21057;51.024;7.540;2023-06-10T07:59:26;26.00;90.60
15455;DHT22;21057;51.024;7.540;2023-06-10T08:01:53;26.10;90.20
15455;DHT22;21057;51.024;7.540;2023-06-10T08:04:20;26.30;90.70
15455;DHT22;21057;51.024;7.540;2023-06-10T08:06:47;26.40;89.70
15455;DHT22;21057;51.024;7.540;2023-06-10T08:09:14;26.60;89.10
15455;DHT22;21057;51.024;7.540;2023-06-10T08:11:41;26.70;90.30
15455;DHT22;21057;51.024;7.540;2023-06-10T08:14:15;26.70;88.10
15455;DHT22;21057;51.024;7.540;2023-06-10T08:16:45;26.80;89.00
15455;DHT22;21057;51.024;7.540;2023-06-10T08:19:19;26.90;89.70
15455;DHT22;21057;51.024;7.540;2023-06-10T08:21:47;26.90;89.40
15455;DHT22;21057;51.024;7.540;2023-06-10T08:24:14;27.00;89.30
15455;DHT22;21057;51.024;7.540;2023-06-10T08:26:44;27.20;88.90
15455;DHT22;21057;51.024;7.540;2023-06-10T08:29:13;27.40;87.00
15455;DHT22;21057;51.024;7.540;2023-06-10T08:31:42;27.50;87.80
15455;DHT22;21057;51.024;7.540;2023-06-10T08:34:10;27.60;88.20
15455;DHT22;21057;51.024;7.540;2023-06-10T08:36:45;27.70;88.10
15455;DHT22;21057;51.024;7.540;2023-06-10T08:39:14;28.00;87.00
15455;DHT22;21057;51.024;7.540;2023-06-10T08:41:43;27.90;85.90
15455;DHT22;21057;51.024;7.540;2023-06-10T08:44:22;28.00;85.50
15455;DHT22;21057;51.024;7.540;2023-06-10T08:46:56;27.90;83.60
15455;DHT22;21057;51.024;7.540;2023-06-10T08:49:26;28.10;84.40
15455;DHT22;21057;51.024;7.540;2023-06-10T08:51:58;28.20;83.70
15455;DHT22;21057;51.024;7.540;2023-06-10T08:54:30;28.40;86.10
15455;DHT22;21057;51.024;7.540;2023-06-10T08:56:59;28.50;85.50
15455;DHT22;21057;51.024;7.540;2023-06-10T08:59:31;28.90;83.90
15455;DHT22;21057;51.024;7.540;2023-06-10T09:01:58;29.20;82.80
15455;DHT22;21057;51.024;7.540;2023-06-10T09:04:27;29.40;81.90
15455;DHT22;21057;51.024;7.540;2023-06-10T09:06:54;29.50;78.90
15455;DHT22;21057;51.024;7.540;2023-06-10T09:09:23;29.60;77.90
15455;DHT22;21057;51.024;7.540;2023-06-10T09:11:52;29.60;80.20
15455;DHT22;21057;51.024;7.540;2023-06-10T09:14:19;29.80;75.60
15455;DHT22;21057;51.024;7.540;2023-06-10T09:16:47;29.90;77.10
15455;DHT22;21057;51.024;7.540;2023-06-10T09:20:02;29.90;78.60
15455;DHT22;21057;51.024;7.540;2023-06-10T09:22:38;30.10;76.50
15455;DHT22;21057;51.024;7.540;2023-06-10T09:25:07;30.50;75.80
15455;DHT22;21057;51.024;7.540;2023-06-10T09:27:47;30.70;73.40
15455;DHT22;21057;51.024;7.540;2023-06-10T09:30:25;30.90;72.70
15455;DHT22;21057;51.024;7.540;2023-06-10T09:32:55;30.90;74.30
15455;DHT22;21057;51.024;7.540;2023-06-10T09:35:23;30.60;71.40
15455;DHT22;21057;51.024;7.540;2023-06-10T09:38:00;30.20;72.50
15455;DHT22;21057;51.024;7.540;2023-06-10T09:40:29;30.40;75.60
15455;DHT22;21057;51.024;7.540;2023-06-10T09:42:59;30.90;72.60
15455;DHT22;21057;51.024;7.540;2023-06-10T09:45:30;31.00;70.50
15455;DHT22;21057;51.024;7.540;2023-06-10T09:48:15;31.10;70.10
15455;DHT22;21057;51.024;7.540;2023-06-10T09:50:43;31.00;71.90
15455;DHT22;21057;51.024;7.540;2023-06-10T09:53:11;30.90;67.10
15455;DHT22;21057;51.024;7.540;2023-06-10T09:55:38;30.70;69.00
15455;DHT22;21057;51.024;7.540;2023-06-10T09:58:05;30.40;70.30
15455;DHT22;21057;51.024;7.540;2023-06-10T10:00:32;30.00;66.80
15455;DHT22;21057;51.024;7.540;2023-06-10T10:03:00;29.70;72.60
15455;DHT22;21057;51.024;7.540;2023-06-10T10:05:28;29.50;69.50
15455;DHT22;21057;51.024;7.540;2023-06-10T10:07:56;29.30;63.70
15455;DHT22;21057;51.024;7.540;2023-06-10T10:10:23;29.20;66.90
15455;DHT22;21057;51.024;7.540;2023-06-10T10:12:53;29.20;67.70
15455;DHT22;21057;51.024;7.540;2023-06-10T10:15:21;29.20;67.20
15455;DHT22;21057;51.024;7.540;2023-06-10T10:17:52;29.70;68.60
15455;DHT22;21057;51.024;7.540;2023-06-10T10:20:26;30.10;61.80
15455;DHT22;21057;51.024;7.540;2023-06-10T10:22:57;30.20;65.40
15455;DHT22;21057;51.024;7.540;2023-06-10T10:25:27;30.30;63.60
15455;DHT22;21057;51.024;7.540;2023-06-10T10:27:58;30.10;60.90
15455;DHT22;21057;51.024;7.540;2023-06-10T10:30:28;30.20;62.80
15455;DHT22;21057;51.024;7.540;2023-06-10T10:32:57;30.40;63.50
15455;DHT22;21057;51.024;7.540;2023-06-10T10:35:27;31.00;63.30
15455;DHT22;21057;51.024;7.540;2023-06-10T10:37:55;31.10;59.10
15455;DHT22;21057;51.024;7.540;2023-06-10T10:40:23;30.80;57.80
15455;DHT22;21057;51.024;7.540;2023-06-10T10:42:51;30.60;57.60
15455;DHT22;21057;51.024;7.540;2023-06-10T10:45:19;31.00;59.70
15455;DHT22;21057;51.024;7.540;2023-06-10T10:47:52;31.40;63.10
15455;DHT22;21057;51.024;7.540;2023-06-10T10:50:23;32.20;60.70
15455;DHT22;21057;51.024;7.540;2023-06-10T10:52:56;32.80;62.80
15455;DHT22;21057;51.024;7.540;2023-06-10T10:55:26;33.20;58.50
15455;DHT22;21057;51.024;7.540;2023-06-10T10:57:54;33.70;57.30
15455;DHT22;21057;51.024;7.540;2023-06-10T11:00:29;33.70;58.50
15455;DHT22;21057;51.024;7.540;2023-06-10T11:03:04;33.40;57.70
15455;DHT22;21057;51.024;7.540;2023-06-10T11:05:38;33.80;59.10
15455;DHT22;21057;51.024;7.540;2023-06-10T11:08:08;33.90;54.90
15455;DHT22;21057;51.024;7.540;2023-06-10T11:10:36;33.70;54.20
15455;DHT22;21057;51.024;7.540;2023-06-10T11:13:07;33.70;55.20
15455;DHT22;21057;51.024;7.540;2023-06-10T11:15:39;33.70;53.70
15455;DHT22;21057;51.024;7.540;2023-06-10T11:18:11;33.80;54.30
15455;DHT22;21057;51.024;7.540;2023-06-10T11:21:00;34.10;51.90
15455;DHT22;21057;51.024;7.540;2023-06-10T11:23:46;34.30;52.70
15455;DHT22;21057;51.024;7.540;2023-06-10T11:26:30;34.40;49.90
15455;DHT22;21057;51.024;7.540;2023-06-10T11:29:08;34.20;52.00
15455;DHT22;21057;51.024;7.540;2023-06-10T11:31:45;34.00;52.10
15455;DHT22;21057;51.024;7.540;2023-06-10T11:34:14;33.90;49.70
15455;DHT22;21057;51.024;7.540;2023-06-10T11:36:42;33.80;50.00
15455;DHT22;21057;51.024;7.540;2023-06-10T11:39:13;34.30;50.40
15455;DHT22;21057;51.024;7.540;2023-06-10T11:41:40;34.70;50.40
15455;DHT22;21057;51.024;7.540;2023-06-10T11:44:09;34.50;47.70
15455;DHT22;21057;51.024;7.540;2023-06-10T11:46:36;34.30;49.70
15455;DHT22;21057;51.024;7.540;2023-06-10T11:49:04;34.30;48.30
15455;DHT22;21057;51.024;7.540;2023-06-10T13:06:24;27.40;59.20
15455;DHT22;21057;51.024;7.540;2023-06-10T13:08:51;27.20;61.70
15455;DHT22;21057;51.024;7.540;2023-06-10T13:11:41;27.90;60.00
15455;DHT22;21057;51.024;7.540;2023-06-10T13:14:31;28.60;57.80
15455;DHT22;21057;51.024;7.540;2023-06-10T13:16:58;29.00;57.80
15455;DHT22;21057;51.024;7.540;2023-06-10T13:19:26;29.20;58.50
15455;DHT22;21057;51.024;7.540;2023-06-10T13:21:54;30.00;58.00
15455;DHT22;21057;51.024;7.540;2023-06-10T13:24:21;30.80;55.40
15455;DHT22;21057;51.024;7.540;2023-06-10T13:26:48;31.50;55.70
15455;DHT22;21057;51.024;7.540;2023-06-10T13:29:15;31.90;54.80
15455;DHT22;21057;51.024;7.540;2023-06-10T13:31:42;31.80;53.00
15455;DHT22;21057;51.024;7.540;2023-06-10T13:34:09;31.40;54.10
15455;DHT22;21057;51.024;7.540;2023-06-10T13:36:37;31.20;53.40
15455;DHT22;21057;51.024;7.540;2023-06-10T13:39:05;30.70;54.30
15455;DHT22;21057;51.024;7.540;2023-06-10T13:41:32;30.30;54.00
15455;DHT22;21057;51.024;7.540;2023-06-10T13:43:59;30.10;55.40
15455;DHT22;21057;51.024;7.540;2023-06-10T13:46:26;29.90;55.30
15455;DHT22;21057;51.024;7.540;2023-06-10T13:48:53;29.70;56.60
15455;DHT22;21057;51.024;7.540;2023-06-10T13:51:20;29.60;56.10
15455;DHT22;21057;51.024;7.540;2023-06-10T13:53:47;29.50;56.40
15455;DHT22;21057;51.024;7.540;2023-06-10T13:56:15;29.30;57.30
15455;DHT22;21057;51.024;7.540;2023-06-10T13:58:42;29.30;58.30
15455;DHT22;21057;51.024;7.540;2023-06-10T14:01:09;29.10;57.10
15455;DHT22;21057;51.024;7.540;2023-06-10T14:03:36;29.00;58.70
15455;DHT22;21057;51.024;7.540;2023-06-10T14:06:03;29.00;57.60
15455;DHT22;21057;51.024;7.540;2023-06-10T14:08:30;29.00;58.90
15455;DHT22;21057;51.024;7.540;2023-06-10T14:10:56;28.90;59.50
15455;DHT22;21057;51.024;7.540;2023-06-10T14:13:25;29.00;59.50
15455;DHT22;21057;51.024;7.540;2023-06-10T14:15:52;29.50;59.60
15455;DHT22;21057;51.024;7.540;2023-06-10T14:18:19;30.20;56.40
15455;DHT22;21057;51.024;7.540;2023-06-10T14:20:46;31.00;58.80
15455;DHT22;21057;51.024;7.540;2023-06-10T14:23:15;31.40;53.80
15455;DHT22;21057;51.024;7.540;2023-06-10T14:25:43;31.80;51.70
15455;DHT22;21057;51.024;7.540;2023-06-10T14:28:10;32.20;51.10
15455;DHT22;21057;51.024;7.540;2023-06-10T14:30:45;32.20;52.20
15455;DHT22;21057;51.024;7.540;2023-06-10T14:33:13;31.90;50.00
15455;DHT22;21057;51.024;7.540;2023-06-10T14:35:41;31.60;52.50
15455;DHT22;21057;51.024;7.540;2023-06-10T14:38:08;31.20;52.30
15455;DHT22;21057;51.024;7.540;2023-06-10T14:40:35;30.40;53.10
15455;DHT22;21057;51.024;7.540;2023-06-10T14:43:02;30.10;54.90
15455;DHT22;21057;51.024;7.540;2023-06-10T14:45:37;29.80;54.80
15455;DHT22;21057;51.024;7.540;2023-06-10T14:48:06;29.70;55.30
15455;DHT22;21057;51.024;7.540;2023-06-10T14:50:34;29.50;55.60
15455;DHT22;21057;51.024;7.540;2023-06-10T14:53:01;29.50;55.40
15455;DHT22;21057;51.024;7.540;2023-06-10T14:55:29;29.80;57.30
15455;DHT22;21057;51.024;7.540;2023-06-10T14:57:55;30.30;56.30
15455;DHT22;21057;51.024;7.540;2023-06-10T15:00:23;30.90;55.60
15455;DHT22;21057;51.024;7.540;2023-06-10T15:02:51;31.30;56.80
15455;DHT22;21057;51.024;7.540;2023-06-10T15:05:20;31.60;54.20
15455;DHT22;21057;51.024;7.540;2023-06-10T15:07:47;31.80;53.80
15455;DHT22;21057;51.024;7.540;2023-06-10T15:10:14;32.10;56.90
15455;DHT22;21057;51.024;7.540;2023-06-10T15:12:42;32.20;53.50
15455;DHT22;21057;51.024;7.540;2023-06-10T15:15:09;32.50;52.60
15455;DHT22;21057;51.024;7.540;2023-06-10T15:17:36;32.60;50.30
15455;DHT22;21057;51.024;7.540;2023-06-10T15:20:04;32.30;52.00
15455;DHT22;21057;51.024;7.540;2023-06-10T15:22:32;32.10;51.90
15455;DHT22;21057;51.024;7.540;2023-06-10T15:24:59;31.80;51.00
15455;DHT22;21057;51.024;7.540;2023-06-10T15:27:26;31.40;52.40
15455;DHT22;21057;51.024;7.540;2023-06-10T15:29:53;31.00;52.70
15455;DHT22;21057;51.024;7.540;2023-06-10T15:32:20;30.60;55.80
15455;DHT22;21057;51.024;7.540;2023-06-10T15:34:46;30.10;57.60
15455;DHT22;21057;51.024;7.540;2023-06-10T15:37:13;30.10;58.00
15455;DHT22;21057;51.024;7.540;2023-06-10T15:39:43;30.30;59.10
15455;DHT22;21057;51.024;7.540;2023-06-10T15:42:10;30.30;58.60
15455;DHT22;21057;51.024;7.540;2023-06-10T15:44:36;30.70;56.60
15455;DHT22;21057;51.024;7.540;2023-06-10T15:47:04;30.70;57.50
15455;DHT22;21057;51.024;7.540;2023-06-10T15:49:31;30.90;56.30
15455;DHT22;21057;51.024;7.540;2023-06-10T15:51:57;30.90;57.10
15455;DHT22;21057;51.024;7.540;2023-06-10T15:54:24;30.90;57.00
15455;DHT22;21057;51.024;7.540;2023-06-10T15:56:52;31.10;58.80
15455;DHT22;21057;51.024;7.540;2023-06-10T15:59:19;31.30;57.30
15455;DHT22;21057;51.024;7.540;2023-06-10T16:01:46;31.30;55.30
15455;DHT22;21057;51.024;7.540;2023-06-10T16:04:13;31.40;55.80
15455;DHT22;21057;51.024;7.540;2023-06-10T16:06:40;31.40;54.70
15455;DHT22;21057;51.024;7.540;2023-06-10T16:09:07;31.30;53.50
15455;DHT22;21057;51.024;7.540;2023-06-10T16:11:34;31.30;54.60
15455;DHT22;21057;51.024;7.540;2023-06-10T16:14:02;31.20;53.40
15455;DHT22;21057;51.024;7.540;2023-06-10T16:16:29;31.20;54.40
15455;DHT22;21057;51.024;7.540;2023-06-10T16:18:56;31.00;52.30
15455;DHT22;21057;51.024;7.540;2023-06-10T16:21:23;31.10;52.60
15455;DHT22;21057;51.024;7.540;2023-06-10T16:24:02;31.30;53.20
15455;DHT22;21057;51.024;7.540;2023-06-10T16:26:30;31.20;50.70
15455;DHT22;21057;51.024;7.540;2023-06-10T16:28:57;31.00;49.00
15455;DHT22;21057;51.024;7.540;2023-06-10T16:31:25;31.10;51.90
15455;DHT22;21057;51.024;7.540;2023-06-10T16:33:53;30.90;53.90
15455;DHT22;21057;51.024;7.540;2023-06-10T16:36:20;30.70;55.20
15455;DHT22;21057;51.024;7.540;2023-06-10T16:38:46;30.60;54.20
15455;DHT22;21057;51.024;7.540;2023-06-10T16:41:13;30.60;55.40
15455;DHT22;21057;51.024;7.540;2023-06-10T16:43:40;30.90;55.00
15455;DHT22;21057;51.024;7.540;2023-06-10T16:46:07;30.80;54.20
15455;DHT22;21057;51.024;7.540;2023-06-10T16:48:35;30.60;54.90
15455;DHT22;21057;51.024;7.540;2023-06-10T16:51:02;30.50;55.20
15455;DHT22;21057;51.024;7.540;2023-06-10T16:53:29;30.40;55.70